createdAt,value
2019-01-11T00:01:16.110Z,19.10
2019-01-11T00:04:06.808Z,20.20
2019-01-11T00:06:44.035Z,20.07
2019-01-11T00:09:20.570Z,19.17
2019-01-11T00:11:53.616Z,18.33
2019-01-11T00:14:32.422Z,16.80
2019-01-11T00:17:09.764Z,17.83
2019-01-11T00:19:43.698Z,17.17
2019-01-11T00:22:25.763Z,19.57
2019-01-11T00:32:06.646Z,19.40
2019-01-11T00:34:36.872Z,15.73
2019-01-11T00:37:11.322Z,16.67
2019-01-11T00:39:49.574Z,17.90
2019-01-11T00:42:19.819Z,15.63
2019-01-11T00:44:53.029Z,14.80
2019-01-11T00:47:24.000Z,14.45
2019-01-11T00:50:16.357Z,16.87
2019-01-11T00:52:55.411Z,13.40
2019-01-11T00:55:28.741Z,13.50
2019-01-11T00:58:18.431Z,15.50
2019-01-11T01:00:49.753Z,17.57
2019-01-11T01:03:21.350Z,14.13
2019-01-11T01:05:51.835Z,16.50
2019-01-11T01:08:23.713Z,15.40
2019-01-11T01:10:53.889Z,16.83
2019-01-11T01:13:24.817Z,16.90
2019-01-11T01:15:55.023Z,13.83
2019-01-11T01:18:26.379Z,16.70
2019-01-11T01:21:28.453Z,16.00
2019-01-11T01:23:59.236Z,15.90
2019-01-11T01:26:29.446Z,14.97
2019-01-11T01:29:05.913Z,14.33
2019-01-11T01:31:36.364Z,15.27
2019-01-11T01:34:10.490Z,14.40
2019-01-11T01:36:40.662Z,14.50
2019-01-11T01:39:11.002Z,14.10
2019-01-11T01:41:41.248Z,15.63
2019-01-11T01:44:12.227Z,15.37
2019-01-11T01:46:42.969Z,15.10
2019-01-11T01:49:14.805Z,13.30
2019-01-11T01:51:46.857Z,14.27
2019-01-11T01:54:18.363Z,16.00
2019-01-11T01:56:50.868Z,15.37
2019-01-11T01:59:21.196Z,14.53
2019-01-11T02:01:56.477Z,14.83
2019-01-11T02:04:27.075Z,14.80
2019-01-11T02:07:00.377Z,13.53
2019-01-11T02:09:32.152Z,15.90
2019-01-11T02:12:06.937Z,14.20
2019-01-11T02:14:35.343Z,15.87
2019-01-11T02:17:05.710Z,15.13
2019-01-11T02:19:55.417Z,14.13
2019-01-11T02:22:28.588Z,14.30
2019-01-11T02:24:59.941Z,13.93
2019-01-11T02:27:55.183Z,13.63
2019-01-11T02:30:26.987Z,13.87
2019-01-11T02:32:57.536Z,13.60
2019-01-11T02:35:29.546Z,13.50
2019-01-11T02:38:02.273Z,15.23
2019-01-11T02:40:32.978Z,15.13
2019-01-11T02:43:03.410Z,14.97
2019-01-11T02:45:38.214Z,14.80
2019-01-11T02:48:08.429Z,13.80
2019-01-11T02:50:38.578Z,13.57
2019-01-11T02:53:09.210Z,15.80
2019-01-11T02:55:39.627Z,15.37
2019-01-11T02:58:10.095Z,17.73
2019-01-11T03:00:40.314Z,15.53
2019-01-11T03:03:10.462Z,17.23
2019-01-11T03:05:43.330Z,15.83
2019-01-11T03:08:13.693Z,17.53
2019-01-11T03:10:44.019Z,18.77
2019-01-11T03:13:14.497Z,16.83
2019-01-11T03:15:54.847Z,11.77
2019-01-11T03:18:21.838Z,16.63
2019-01-11T03:21:28.246Z,17.60
2019-01-11T03:23:51.442Z,17.03
2019-01-11T03:26:21.839Z,20.20
2019-01-11T03:28:52.381Z,20.17
2019-01-11T03:31:34.716Z,21.50
2019-01-11T03:34:07.984Z,22.10
2019-01-11T03:36:40.538Z,22.90
2019-01-11T03:39:10.828Z,23.10
2019-01-11T03:41:55.025Z,20.90
2019-01-11T03:44:25.288Z,21.50
2019-01-11T03:46:55.560Z,21.47
2019-01-11T03:49:26.181Z,21.90
2019-01-11T03:51:57.819Z,20.57
2019-01-11T03:54:30.876Z,22.87
2019-01-11T03:57:05.722Z,25.30
2019-01-11T03:59:36.039Z,25.60
2019-01-11T04:02:06.492Z,23.00
2019-01-11T04:04:37.923Z,20.43
2019-01-11T04:07:08.212Z,28.93
2019-01-11T04:09:38.831Z,22.77
2019-01-11T04:12:09.379Z,27.07
2019-01-11T04:14:39.626Z,23.13
2019-01-11T04:17:37.620Z,23.27
2019-01-11T04:20:19.698Z,32.30
2019-01-11T04:23:19.417Z,29.63
2019-01-11T04:25:53.333Z,27.47
2019-01-11T04:28:27.209Z,24.97
2019-01-11T04:30:57.646Z,33.47
2019-01-11T04:33:27.895Z,34.07
2019-01-11T04:36:00.022Z,36.60
2019-01-11T04:38:36.110Z,34.33
2019-01-11T04:41:15.145Z,32.87
2019-01-11T04:43:49.207Z,37.10
2019-01-11T04:46:19.851Z,47.13
2019-01-11T04:48:52.279Z,36.63
2019-01-11T04:51:22.593Z,34.10
2019-01-11T04:53:52.992Z,38.90
2019-01-11T04:56:25.510Z,37.30
2019-01-11T04:58:55.958Z,31.90
2019-01-11T05:01:26.510Z,29.50
2019-01-11T05:04:02.915Z,45.07
2019-01-11T05:06:35.073Z,43.77
2019-01-11T05:09:09.073Z,57.97
2019-01-11T05:11:39.182Z,36.07
2019-01-11T05:14:21.697Z,36.40
2019-01-11T05:16:52.774Z,41.83
2019-01-11T05:19:23.175Z,41.17
2019-01-11T05:22:02.767Z,47.13
2019-01-11T05:24:35.578Z,49.60
2019-01-11T05:27:14.797Z,51.83
2019-01-11T05:29:48.123Z,58.60
2019-01-11T05:32:19.433Z,37.23
2019-01-11T05:34:52.945Z,63.40
2019-01-11T05:37:23.471Z,50.10
2019-01-11T05:39:53.868Z,54.07
2019-01-11T05:42:41.246Z,53.77
2019-01-11T05:45:07.848Z,60.30
2019-01-11T05:47:38.061Z,49.70
2019-01-11T05:50:10.841Z,56.17
2019-01-11T05:52:41.318Z,48.53
2019-01-11T05:55:14.709Z,34.43
2019-01-11T05:58:06.723Z,69.33
2019-01-11T06:00:37.044Z,63.60
2019-01-11T06:03:16.928Z,50.40
2019-01-11T06:05:54.239Z,48.77
2019-01-11T06:08:27.102Z,63.70
2019-01-11T06:11:04.504Z,59.40
2019-01-11T06:13:34.961Z,80.00
2019-01-11T06:16:12.903Z,54.23
2019-01-11T06:18:41.824Z,60.30
2019-01-11T06:21:12.372Z,56.93
2019-01-11T06:23:42.829Z,58.07
2019-01-11T06:26:13.407Z,70.67
2019-01-11T06:28:43.842Z,59.43
2019-01-11T06:31:17.559Z,50.63
2019-01-11T06:34:15.700Z,57.50
2019-01-11T06:36:47.241Z,48.53
2019-01-11T06:39:17.817Z,47.67
2019-01-11T06:42:04.405Z,61.63
2019-01-11T06:44:39.086Z,43.70
2019-01-11T06:47:09.894Z,52.90
2019-01-11T06:49:39.947Z,57.07
2019-01-11T06:52:10.118Z,44.57
2019-01-11T06:54:40.485Z,52.60
2019-01-11T06:57:10.788Z,43.50
2019-01-11T06:59:41.225Z,50.80
2019-01-11T07:02:48.381Z,59.37
2019-01-11T07:05:29.317Z,54.33
2019-01-11T07:08:00.955Z,45.03
2019-01-11T07:10:34.375Z,45.83
2019-01-11T07:13:07.553Z,43.60
2019-01-11T07:15:40.475Z,47.63
2019-01-11T07:18:19.280Z,50.43
2019-01-11T07:20:50.323Z,41.83
2019-01-11T07:23:25.291Z,46.03
2019-01-11T07:25:56.834Z,43.07
2019-01-11T07:28:31.098Z,43.93
2019-01-11T07:31:07.940Z,46.67
2019-01-11T07:33:47.363Z,35.73
2019-01-11T07:36:27.570Z,44.93
2019-01-11T07:38:57.973Z,36.47
2019-01-11T07:41:34.130Z,41.17
2019-01-11T07:44:05.073Z,44.90
2019-01-11T07:46:37.398Z,42.70
2019-01-11T07:49:09.930Z,44.60
2019-01-11T07:51:41.621Z,38.60
2019-01-11T07:54:18.848Z,39.00
2019-01-11T07:56:49.610Z,45.03
2019-01-11T07:59:20.973Z,40.03
2019-01-11T08:01:51.836Z,41.13
2019-01-11T08:04:25.972Z,44.03
2019-01-11T08:06:57.373Z,40.83
2019-01-11T08:09:27.665Z,43.03
2019-01-11T08:11:58.089Z,43.80
2019-01-11T08:14:28.390Z,37.37
2019-01-11T08:16:58.658Z,39.10
2019-01-11T08:19:29.396Z,39.90
2019-01-11T08:21:59.427Z,30.90
2019-01-11T08:24:29.708Z,32.80
2019-01-11T08:27:02.525Z,30.87
2019-01-11T08:29:33.521Z,34.50
2019-01-11T08:32:11.841Z,34.57
2019-01-11T08:34:49.015Z,40.40
2019-01-11T08:37:21.139Z,36.10
2019-01-11T08:39:51.794Z,38.43
2019-01-11T08:42:34.968Z,21.30
2019-01-11T08:45:05.926Z,30.50
2019-01-11T08:47:36.127Z,25.00
2019-01-11T08:50:14.525Z,25.73
2019-01-11T08:52:44.994Z,21.87
2019-01-11T08:55:19.363Z,26.20
2019-01-11T08:57:49.602Z,18.67
2019-01-11T09:00:20.271Z,25.30
2019-01-11T09:02:50.299Z,16.00
2019-01-11T09:05:20.631Z,14.27
2019-01-11T09:07:52.692Z,14.03
2019-01-11T09:10:24.731Z,19.03
2019-01-11T09:12:54.628Z,17.10
2019-01-11T09:15:24.691Z,13.73
2019-01-11T09:18:13.039Z,15.47
2019-01-11T09:20:45.316Z,13.13
2019-01-11T09:23:15.728Z,13.20
2019-01-11T09:25:46.002Z,12.93
2019-01-11T09:28:16.174Z,9.70
2019-01-11T09:30:46.485Z,11.67
2019-01-11T09:33:20.339Z,10.67
2019-01-11T09:35:48.453Z,11.70
2019-01-11T09:38:22.156Z,11.07
2019-01-11T09:40:54.032Z,7.13
2019-01-11T09:43:24.103Z,5.63
2019-01-11T09:45:54.573Z,6.77
2019-01-11T09:48:24.781Z,7.53
2019-01-11T09:50:54.883Z,5.80
2019-01-11T09:53:24.992Z,9.63
2019-01-11T09:55:55.186Z,10.53
2019-01-11T09:58:32.617Z,4.23
2019-01-11T10:01:05.951Z,12.27
2019-01-11T10:03:36.122Z,6.50
2019-01-11T10:06:06.408Z,7.47
2019-01-11T10:08:36.361Z,9.60
2019-01-11T10:11:06.835Z,4.70
2019-01-11T10:13:37.123Z,8.37
2019-01-11T10:16:07.300Z,7.43
2019-01-11T10:18:37.969Z,7.63
2019-01-11T10:21:08.152Z,12.40
2019-01-11T10:23:38.596Z,5.20
2019-01-11T10:26:12.015Z,10.43
2019-01-11T10:28:45.338Z,6.17
2019-01-11T10:31:16.030Z,4.60
2019-01-11T10:33:46.411Z,6.43
2019-01-11T10:36:16.923Z,12.23
2019-01-11T10:38:47.400Z,5.90
2019-01-11T10:41:17.672Z,6.67
2019-01-11T10:43:48.076Z,6.00
2019-01-11T10:46:35.306Z,9.63
2019-01-11T10:49:05.883Z,11.43
2019-01-11T10:51:37.090Z,7.37
2019-01-11T10:54:09.239Z,8.40
2019-01-11T10:56:39.318Z,5.27
2019-01-11T10:59:11.538Z,7.03
2019-01-11T11:01:46.839Z,3.60
2019-01-11T11:04:18.541Z,3.67
2019-01-11T11:06:49.026Z,6.27
2019-01-11T11:09:19.251Z,3.63
2019-01-11T11:11:51.405Z,5.87
2019-01-11T11:14:21.517Z,5.13
2019-01-11T11:16:52.075Z,4.27
2019-01-11T11:19:22.905Z,4.80
2019-01-11T11:21:55.268Z,2.50
2019-01-11T11:24:25.956Z,3.40
2019-01-11T11:26:56.071Z,5.97
2019-01-11T11:29:26.186Z,4.00
2019-01-11T11:31:57.848Z,4.17
2019-01-11T11:34:28.505Z,7.30
2019-01-11T11:37:02.649Z,3.93
2019-01-11T11:39:40.675Z,3.73
2019-01-11T11:42:10.987Z,3.53
2019-01-11T11:44:41.254Z,4.57
2019-01-11T11:47:11.897Z,3.10
2019-01-11T11:49:42.718Z,2.90
2019-01-11T11:52:17.719Z,3.23
2019-01-11T11:54:59.180Z,2.77
2019-01-11T11:57:27.999Z,4.87
2019-01-11T11:59:58.518Z,2.97
2019-01-11T12:02:29.434Z,2.63
2019-01-11T12:04:59.940Z,4.00
2019-01-11T12:07:30.154Z,4.80
2019-01-11T12:10:01.976Z,2.00
2019-01-11T12:12:32.171Z,2.90
2019-01-11T12:15:02.398Z,2.10
2019-01-11T12:17:32.993Z,4.03
2019-01-11T12:20:05.744Z,4.17
2019-01-11T12:22:36.028Z,4.50
2019-01-11T12:25:07.924Z,3.77
2019-01-11T12:27:38.117Z,7.63
2019-01-11T12:30:13.583Z,5.00
2019-01-11T12:32:44.283Z,4.13
2019-01-11T12:35:15.649Z,5.17
2019-01-11T12:37:45.583Z,5.53
2019-01-11T12:40:17.269Z,4.00
2019-01-11T12:42:48.045Z,6.57
2019-01-11T12:45:20.134Z,6.20
2019-01-11T12:47:50.540Z,3.37
2019-01-11T12:50:25.474Z,4.00
2019-01-11T12:52:57.284Z,3.00
2019-01-11T12:55:27.594Z,8.10
2019-01-11T12:57:57.902Z,5.27
2019-01-11T13:00:28.647Z,4.73
2019-01-11T13:02:58.665Z,3.63
2019-01-11T13:05:29.375Z,4.03
2019-01-11T13:08:00.123Z,6.20
2019-01-11T13:10:32.354Z,6.93
2019-01-11T13:13:05.513Z,4.60
2019-01-11T13:15:36.075Z,3.63
2019-01-11T13:18:06.893Z,4.63
2019-01-11T13:20:38.682Z,9.00
2019-01-11T13:23:11.222Z,5.23
2019-01-11T13:25:42.897Z,6.57
2019-01-11T13:28:13.619Z,7.07
2019-01-11T13:30:44.393Z,6.57
2019-01-11T13:33:14.773Z,8.17
2019-01-11T13:35:45.034Z,5.53
2019-01-11T13:38:15.646Z,8.90
2019-01-11T13:40:45.812Z,5.30
2019-01-11T13:43:16.427Z,4.63
2019-01-11T13:45:48.315Z,8.70
2019-01-11T13:48:18.751Z,4.53
2019-01-11T13:50:49.880Z,4.70
2019-01-11T13:53:21.157Z,11.50
2019-01-11T13:55:53.878Z,9.53
2019-01-11T13:58:24.395Z,8.87
2019-01-11T14:00:54.572Z,11.70
2019-01-11T14:03:24.903Z,9.17
2019-01-11T14:05:55.222Z,8.17
2019-01-11T14:08:28.425Z,9.23
2019-01-11T14:10:59.546Z,11.40
2019-01-11T14:13:33.053Z,15.80
2019-01-11T14:16:03.164Z,9.93
2019-01-11T14:18:33.775Z,13.43
2019-01-11T14:21:06.705Z,13.57
2019-01-11T14:23:37.150Z,14.73
2019-01-11T14:26:07.295Z,8.80
2019-01-11T14:28:37.808Z,13.37
2019-01-11T14:31:08.137Z,14.67
2019-01-11T14:33:38.607Z,13.83
2019-01-11T14:36:16.205Z,12.50
2019-01-11T14:38:46.277Z,17.60
2019-01-11T14:41:17.046Z,13.37
2019-01-11T14:43:47.335Z,16.57
2019-01-11T14:46:18.600Z,12.43
2019-01-11T14:48:49.033Z,15.57
2019-01-11T14:51:25.149Z,13.67
2019-01-11T14:54:20.172Z,14.17
2019-01-11T14:56:52.549Z,10.97
2019-01-11T15:00:47.936Z,11.90
2019-01-11T15:11:22.512Z,22.20
2019-01-11T15:17:21.654Z,14.50
2019-01-11T15:18:25.960Z,18.20
2019-01-11T15:29:45.980Z,23.23
2019-01-11T15:38:59.694Z,20.70
2019-01-11T15:41:49.298Z,17.27
2019-01-11T15:47:39.770Z,27.50
2019-01-11T15:50:41.297Z,16.07
2019-01-11T15:53:50.140Z,21.60
2019-01-11T15:57:05.943Z,21.50
2019-01-11T16:06:57.329Z,23.10
2019-01-11T16:11:15.669Z,18.67
2019-01-11T16:14:18.555Z,17.20
2019-01-11T16:17:22.266Z,17.93
2019-01-11T16:19:52.870Z,20.70
2019-01-11T16:22:31.603Z,27.00
2019-01-11T16:25:03.735Z,25.60
2019-01-11T16:27:34.187Z,21.80
2019-01-11T16:30:06.298Z,21.70
2019-01-11T16:32:36.835Z,19.50
2019-01-11T16:35:07.351Z,25.43
2019-01-11T16:37:43.128Z,22.60
2019-01-11T16:40:13.807Z,21.63
2019-01-11T16:42:44.290Z,20.47
2019-01-11T16:45:15.095Z,17.30
2019-01-11T16:47:45.284Z,30.47
2019-01-11T16:50:15.804Z,23.53
2019-01-11T16:52:48.999Z,22.80
2019-01-11T16:55:31.189Z,19.00
2019-01-11T16:58:01.658Z,22.47
2019-01-11T17:00:34.110Z,19.27
2019-01-11T17:03:06.027Z,23.00
2019-01-11T17:05:35.929Z,25.07
2019-01-11T17:08:10.418Z,28.53
2019-01-11T17:10:41.077Z,21.20
2019-01-11T17:13:11.530Z,19.83
2019-01-11T17:15:46.359Z,25.10
2019-01-11T17:18:16.496Z,24.17
2019-01-11T17:20:47.541Z,23.70
2019-01-11T17:23:19.804Z,20.07
2019-01-11T17:25:57.642Z,25.93
2019-01-11T17:28:29.853Z,25.10
2019-01-11T17:31:06.228Z,21.77
2019-01-11T17:33:40.441Z,21.90
2019-01-11T17:36:11.170Z,28.53
2019-01-11T17:38:42.076Z,27.87
2019-01-11T17:41:13.441Z,22.97
2019-01-11T17:43:44.829Z,37.07
2019-01-11T17:46:15.416Z,23.17
2019-01-11T17:48:46.421Z,27.50
2019-01-11T17:51:17.081Z,32.83
2019-01-11T17:53:47.215Z,25.53
2019-01-11T17:56:22.106Z,28.03
2019-01-11T17:58:53.777Z,24.43
2019-01-11T18:01:25.804Z,24.30
2019-01-11T18:03:55.790Z,29.47
2019-01-11T18:06:26.342Z,22.77
2019-01-11T18:08:59.506Z,22.50
2019-01-11T18:11:29.978Z,24.03
2019-01-11T18:14:02.954Z,36.13
2019-01-11T18:16:33.281Z,31.10
2019-01-11T18:19:03.662Z,28.73
2019-01-11T18:21:35.946Z,23.33
2019-01-11T18:24:09.654Z,27.93
2019-01-11T18:26:42.570Z,28.73
2019-01-11T18:29:15.930Z,23.40
2019-01-11T18:31:50.177Z,33.03
2019-01-11T18:34:24.006Z,24.80
2019-01-11T18:36:54.241Z,23.57
2019-01-11T18:39:24.720Z,30.30
2019-01-11T18:42:02.642Z,32.73
2019-01-11T18:44:32.919Z,29.30
2019-01-11T18:47:08.112Z,27.90
2019-01-11T18:49:38.191Z,26.80
2019-01-11T18:52:08.261Z,32.57
2019-01-11T18:54:39.156Z,38.63
2019-01-11T18:57:09.791Z,33.80
2019-01-11T18:59:44.037Z,34.30
2019-01-11T19:02:14.779Z,27.13
2019-01-11T19:04:48.783Z,27.67
2019-01-11T19:07:19.848Z,28.77
2019-01-11T19:09:51.757Z,25.47
2019-01-11T19:12:24.437Z,35.73
2019-01-11T19:14:54.695Z,28.33
2019-01-11T19:17:24.916Z,23.60
2019-01-11T19:19:58.519Z,28.80
2019-01-11T19:22:28.565Z,27.27
2019-01-11T19:24:58.730Z,37.63
2019-01-11T19:27:29.295Z,37.83
2019-01-11T19:30:10.939Z,29.60
2019-01-11T19:32:43.485Z,31.80
2019-01-11T19:35:13.718Z,33.07
2019-01-11T19:37:44.494Z,32.77
2019-01-11T19:40:15.002Z,30.53
2019-01-11T19:42:47.499Z,26.63
2019-01-11T19:45:18.009Z,34.50
2019-01-11T19:47:49.773Z,31.43
2019-01-11T19:50:26.103Z,25.67
2019-01-11T19:52:56.508Z,25.20
2019-01-11T19:55:28.709Z,31.07
2019-01-11T19:58:00.226Z,28.23
2019-01-11T20:00:39.693Z,33.47
2019-01-11T20:03:10.017Z,30.77
2019-01-11T20:05:40.704Z,32.37
2019-01-11T20:08:11.386Z,42.37
2019-01-11T20:10:41.629Z,23.37
2019-01-11T20:13:14.546Z,30.27
2019-01-11T20:15:45.799Z,28.67
2019-01-11T20:18:16.170Z,31.57
2019-01-11T20:20:46.593Z,28.37
2019-01-11T20:23:16.934Z,30.17
2019-01-11T20:25:47.109Z,35.87
2019-01-11T20:28:17.510Z,26.87
2019-01-11T20:30:47.953Z,25.83
2019-01-11T20:33:18.430Z,32.40
2019-01-11T20:35:48.565Z,29.17
2019-01-11T20:38:19.072Z,27.13
2019-01-11T20:40:49.142Z,34.63
2019-01-11T20:43:25.055Z,23.93
2019-01-11T20:46:03.362Z,26.23
2019-01-11T20:48:33.126Z,25.20
2019-01-11T20:51:03.310Z,28.63
2019-01-11T20:53:41.624Z,23.27
2019-01-11T20:56:14.973Z,30.17
2019-01-11T20:58:49.799Z,22.77
2019-01-11T21:01:20.126Z,33.40
2019-01-11T21:03:50.392Z,25.13
2019-01-11T21:06:22.097Z,18.17
2019-01-11T21:08:53.290Z,30.90
2019-01-11T21:11:23.432Z,23.90
2019-01-11T21:13:53.695Z,22.23
2019-01-11T21:16:23.869Z,29.47
2019-01-11T21:18:54.337Z,31.07
2019-01-11T21:21:24.742Z,28.43
2019-01-11T21:23:59.502Z,27.90
2019-01-11T21:26:30.301Z,34.77
2019-01-11T21:29:00.466Z,30.10
2019-01-11T21:31:30.517Z,27.27
2019-01-11T21:34:00.892Z,34.70
2019-01-11T21:36:35.330Z,26.33
2019-01-11T21:39:09.949Z,23.63
2019-01-11T21:41:52.529Z,29.93
2019-01-11T21:44:37.215Z,26.53
2019-01-11T21:47:07.523Z,33.67
2019-01-11T21:49:37.731Z,25.90
2019-01-11T21:52:09.837Z,23.80
2019-01-11T21:54:48.309Z,23.93
2019-01-11T21:57:21.510Z,25.47
2019-01-11T21:59:54.528Z,22.67
2019-01-11T22:02:26.645Z,26.97
2019-01-11T22:04:56.981Z,21.97
2019-01-11T22:07:27.194Z,39.33
2019-01-11T22:10:18.297Z,22.80
2019-01-11T22:12:50.404Z,33.50
2019-01-11T22:15:27.353Z,23.77
2019-01-11T22:18:12.731Z,29.80
2019-01-11T22:20:43.545Z,25.57
2019-01-11T22:23:13.843Z,30.57
2019-01-11T22:25:43.851Z,24.40
2019-01-11T22:28:16.954Z,20.97
2019-01-11T22:30:48.086Z,28.30
2019-01-11T22:33:18.544Z,21.37
2019-01-11T22:35:50.556Z,27.63
2019-01-11T22:38:20.432Z,26.47
2019-01-11T22:40:50.803Z,23.60
2019-01-11T22:43:21.357Z,26.70
2019-01-11T22:45:51.658Z,20.57
2019-01-11T22:48:22.339Z,23.93
2019-01-11T22:50:52.685Z,23.17
2019-01-11T22:53:23.158Z,19.73
2019-01-11T22:56:05.076Z,22.90
2019-01-11T22:58:48.401Z,28.63
2019-01-11T23:02:03.753Z,23.83
2019-01-11T23:04:36.193Z,29.20
2019-01-11T23:07:30.283Z,27.67
2019-01-11T23:10:14.889Z,26.30
2019-01-11T23:19:17.142Z,17.97
2019-01-11T23:19:50.928Z,20.67
2019-01-11T23:21:49.863Z,29.80
2019-01-11T23:24:27.615Z,27.40
2019-01-11T23:26:57.988Z,18.03
2019-01-11T23:29:29.518Z,26.43
2019-01-11T23:32:03.558Z,19.13
2019-01-11T23:34:40.266Z,24.23
2019-01-11T23:37:19.683Z,23.50
2019-01-11T23:40:04.360Z,25.73
2019-01-11T23:42:35.024Z,22.13
2019-01-11T23:45:57.334Z,22.27
2019-01-11T23:48:33.616Z,22.20
2019-01-11T23:51:09.449Z,23.97
2019-01-11T23:53:39.779Z,27.63
2019-01-11T23:56:20.333Z,28.33
2019-01-11T23:58:50.485Z,19.00
